Time;durP1;ratioP1;P1;durP2;ratioP2;P2;SDS_P1;SDS_P2;PMS_P1;PMS_P2;Temp;Humidity;BMP_temperature;BMP_pressure;BME280_temperature;BME280_humidity;BME280_pressure;Samples;Min_cycle;Max_cycle;Signal;HPM_P1;HPM_P2
2021/05/26 00:01:39;;;;;;;0.75;0.60;;;;;;;;;;5014396;28;20048;-86
2021/05/26 00:04:05;;;;;;;0.40;0.40;;;;;;;;;;5030687;28;20029;-85
2021/05/26 00:06:31;;;;;;;4.57;1.15;;;;;;;;;;5018164;28;20491;-86
2021/05/26 00:08:57;;;;;;;1.58;0.68;;;;;;;;;;5025386;28;20037;-85
2021/05/26 00:11:23;;;;;;;0.63;0.57;;;;;;;;;;5029747;28;20399;-86
2021/05/26 00:13:49;;;;;;;0.88;0.82;;;;;;;;;;5029198;28;20033;-87
2021/05/26 00:16:16;;;;;;;1.05;0.68;;;11.40;53.10;;;;;;5029461;28;20041;-86
2021/05/26 00:18:42;;;;;;;2.72;0.60;;;;;;;;;;5016765;28;20561;-86
2021/05/26 00:21:09;;;;;;;1.73;1.20;;;11.30;53.10;;;;;;5025870;28;20029;-86
2021/05/26 00:23:36;;;;;;;0.70;0.63;;;;;;;;;;5028975;28;20257;-86
2021/05/26 00:26:02;;;;;;;0.67;0.67;;;;;;;;;;5028294;28;20112;-88
2021/05/26 00:28:28;;;;;;;1.25;0.80;;;;;;;;;;5011897;28;20443;-86
2021/05/26 00:30:56;;;;;;;4.85;0.90;;;;;;;;;;5030540;28;20041;-86
2021/05/26 00:33:22;;;;;;;1.60;0.90;;;;;;;;;;5025665;28;20482;-86
2021/05/26 00:35:48;;;;;;;0.80;0.80;;;;;;;;;;5023989;28;20463;-86
2021/05/26 00:38:15;;;;;;;0.80;0.52;;;;;;;;;;5014612;28;20128;-86
2021/05/26 00:40:41;;;;;;;2.83;1.10;;;;;;;;;;5029846;28;20056;-86
2021/05/26 00:43:07;;;;;;;1.70;0.70;;;;;;;;;;5029631;28;20444;-86
2021/05/26 00:45:34;;;;;;;0.57;0.50;;;;;;;;;;5030388;28;20033;-87
2021/05/26 00:48:00;;;;;;;2.45;0.80;;;;;;;;;;5020924;28;20128;-86
2021/05/26 00:50:33;;;;;;;0.80;0.75;;;11.30;52.90;;;;;;5018804;28;20556;-85
2021/05/26 00:53:01;;;;;;;1.33;0.70;;;11.20;52.60;;;;;;5016831;28;20486;-86
2021/05/26 00:55:27;;;;;;;0.50;0.50;;;;;;;;;;5013516;28;20040;-86
2021/05/26 00:57:53;;;;;;;2.53;0.90;;;11.10;53.00;;;;;;5026323;28;20025;-86
2021/05/26 01:00:21;;;;;;;1.75;0.70;;;;;;;;;;5033164;28;20026;-88
2021/05/26 01:02:49;;;;;;;0.65;0.63;;;;;;;;;;5033332;28;20025;-86
2021/05/26 01:05:16;;;;;;;1.13;0.77;;;;;;;;;;5032162;28;20552;-87
2021/05/26 01:07:42;;;;;;;0.50;0.50;;;;;;;;;;5018163;28;20079;-86
2021/05/26 01:10:10;;;;;;;0.98;0.90;;;11.00;53.00;;;;;;5033703;28;20120;-87
2021/05/26 01:12:36;;;;;;;0.93;0.70;;;;;;;;;;5033624;28;20438;-86
2021/05/26 01:15:02;;;;;;;0.50;0.50;;;;;;;;;;5032956;28;20050;-87
2021/05/26 01:17:28;;;;;;;0.95;0.70;;;;;;;;;;5029702;28;20037;-87
2021/05/26 01:19:54;;;;;;;0.60;0.60;;;;;;;;;;5017410;28;20045;-86
2021/05/26 01:22:20;;;;;;;1.10;0.70;;;;;;;;;;5031331;28;20071;-87
2021/05/26 01:24:46;;;;;;;2.42;0.70;;;;;;;;;;5018358;28;20530;-87
2021/05/26 01:27:13;;;;;;;0.85;0.63;;;10.90;53.90;;;;;;5025582;28;20173;-87
2021/05/26 01:29:39;;;;;;;2.57;0.73;;;;;;;;;;5021235;28;20030;-87
2021/05/26 01:32:05;;;;;;;0.60;0.60;;;;;;;;;;5016511;28;20026;-87
2021/05/26 01:34:31;;;;;;;2.03;1.35;;;;;;;;;;5016466;28;20126;-86
2021/05/26 01:36:57;;;;;;;1.13;0.73;;;11.00;53.20;;;;;;5032125;28;20037;-87
2021/05/26 01:39:23;;;;;;;0.63;0.63;;;11.00;76.70;;;;;;5032285;28;20124;-87
2021/05/26 01:41:48;;;;;;;1.92;0.90;;;10.90;77.20;;;;;;5031123;28;20164;-87
2021/05/26 01:44:14;;;;;;;0.52;0.52;;;;;;;;;;5031105;28;20064;-87
2021/05/26 01:46:41;;;;;;;3.00;0.90;;;;;;;;;;5014785;28;20041;-87
2021/05/26 01:49:08;;;;;;;1.15;1.00;;;;;;;;;;5016841;28;20025;-86
2021/05/26 01:51:35;;;;;;;1.10;0.63;;;10.90;52.70;;;;;;5029829;28;20048;-87
2021/05/26 01:54:01;;;;;;;1.45;0.90;;;;;;;;;;5027811;28;20374;-87
2021/05/26 01:56:29;;;;;;;1.23;0.70;;;10.80;52.30;;;;;;5020959;28;20136;-87
2021/05/26 01:58:57;;;;;;;0.73;0.52;;;10.60;53.20;;;;;;5019162;28;20091;-87
2021/05/26 02:01:24;;;;;;;0.70;0.60;;;10.60;53.60;;;;;;5015670;28;20062;-88
2021/05/26 02:03:50;;;;;;;;;;;10.70;54.00;;;;;;5033700;28;20037;-88
2021/05/26 02:06:17;;;;;;;0.63;0.43;;;10.60;53.60;;;;;;5031573;28;19948;-87
2021/05/26 02:08:45;;;;;;;0.55;0.55;;;10.60;53.90;;;;;;5032338;28;20060;-85
2021/05/26 02:14:01;;;;;;;2.20;0.90;;;10.70;53.20;;;;;;5031835;28;20099;-87
2021/05/26 02:16:27;;;;;;;0.70;0.70;;;;;;;;;;5015715;28;20045;-86
2021/05/26 02:18:53;;;;;;;1.10;0.50;;;;;;;;;;5032854;28;20041;-86
2021/05/26 02:21:20;;;;;;;1.45;0.80;;;;;;;;;;5038810;28;20420;-87
2021/05/26 02:23:46;;;;;;;0.50;0.50;;;;;;;;;;5036550;28;20029;-87
2021/05/26 02:26:12;;;;;;;1.80;1.00;;;;;;;;;;5030377;28;20037;-86
2021/05/26 02:28:38;;;;;;;1.33;1.08;;;;;;;;;;5031470;28;20029;-87
2021/05/26 02:31:04;;;;;;;0.88;0.82;;;;;;;;;;5032772;28;20568;-87
2021/05/26 02:33:30;;;;;;;0.90;0.77;;;;;;;;;;5030053;28;20072;-86
2021/05/26 02:35:56;;;;;;;11.63;0.75;;;;;;;;;;5022847;28;20029;-87
2021/05/26 02:38:22;;;;;;;2.13;0.77;;;;;;;;;;5020497;28;20048;-86
2021/05/26 02:40:48;;;;;;;1.50;0.38;;;;;;;;;;5017468;28;20029;-87
2021/05/26 02:43:14;;;;;;;0.90;0.80;;;;;;;;;;5031387;28;20036;-86
2021/05/26 02:45:40;;;;;;;6.32;1.33;;;;;;;;;;5031956;28;20029;-87
2021/05/26 02:48:06;;;;;;;1.55;1.00;;;;;;;;;;5031392;28;20053;-86
2021/05/26 02:50:32;;;;;;;2.97;2.75;;;;;;;;;;5028053;28;20058;-86
2021/05/26 02:52:58;;;;;;;3.63;1.92;;;;;;;;;;5018606;28;20026;-87
2021/05/26 02:55:25;;;;;;;1.35;1.13;;;;;;;;;;5029954;28;20044;-87
2021/05/26 02:57:51;;;;;;;1.23;0.82;;;;;;;;;;5032031;28;20059;-87
2021/05/26 03:00:19;;;;;;;8.63;1.10;;;11.00;53.50;;;;;;5037361;28;20041;-87
2021/05/26 03:02:45;;;;;;;2.63;0.88;;;;;;;;;;5021419;28;20033;-86
2021/05/26 03:05:12;;;;;;;1.10;0.80;;;10.80;52.40;;;;;;5020072;28;20029;-86
2021/05/26 03:07:42;;;;;;;1.33;0.90;;;10.70;52.70;;;;;;5015344;28;20387;-87
2021/05/26 03:10:10;;;;;;;1.92;0.80;;;10.60;52.60;;;;;;5029654;28;20045;-86
2021/05/26 03:12:36;;;;;;;;;;;10.60;53.00;;;;;;5030729;28;20120;-87
2021/05/26 03:15:03;;;;;;;1.33;0.85;;;10.50;53.20;;;;;;5021910;28;20059;-87
2021/05/26 03:17:29;;;;;;;2.08;1.05;;;;;;;;;;5029730;28;20032;-86
2021/05/26 03:19:56;;;;;;;3.17;0.73;;;;;;;;;;5030626;28;20046;-87
2021/05/26 03:22:25;;;;;;;1.05;0.93;;;10.50;53.50;;;;;;5029031;28;20171;-86
2021/05/26 03:24:51;;;;;;;0.65;0.65;;;;;;;;;;5031075;28;20037;-86
2021/05/26 03:27:20;;;;;;;5.20;1.23;;;;;;;;;;5029157;28;20033;-87
2021/05/26 03:29:46;;;;;;;0.70;0.70;;;;;;;;;;5029961;28;20112;-87
2021/05/26 03:32:12;;;;;;;2.38;0.80;;;;;;;;;;5025983;28;20034;-87
2021/05/26 03:34:38;;;;;;;2.08;1.70;;;;;;;;;;5043973;28;20049;-87
2021/05/26 03:37:04;;;;;;;1.02;0.70;;;;;;;;;;5046734;28;20083;-86
2021/05/26 03:39:30;;;;;;;0.82;0.75;;;;;;;;;;5031002;28;20048;-86
2021/05/26 03:41:56;;;;;;;2.38;1.00;;;;;;;;;;5030638;28;20056;-87
2021/05/26 03:44:22;;;;;;;0.93;0.82;;;;;;;;;;5026491;28;20176;-88
2021/05/26 03:46:48;;;;;;;5.93;1.63;;;;;;;;;;5016422;28;20037;-87
2021/05/26 03:49:14;;;;;;;1.35;0.80;;;;;;;;;;5029982;28;20410;-86
2021/05/26 03:51:40;;;;;;;2.17;1.30;;;;;;;;;;5016892;28;20029;-87
2021/05/26 03:54:06;;;;;;;2.38;1.55;;;;;;;;;;5027560;28;20033;-87
2021/05/26 03:56:32;;;;;;;1.42;1.33;;;;;;;;;;5026632;28;20075;-87
2021/05/26 03:58:58;;;;;;;1.17;0.80;;;;;;;;;;5030040;28;20033;-86
2021/05/26 04:01:24;;;;;;;0.60;0.50;;;;;;;;;;5029899;28;20025;-86
2021/05/26 04:03:52;;;;;;;1.17;0.93;;;;;;;;;;5030813;28;20033;-87
2021/05/26 04:06:18;;;;;;;2.10;1.05;;;;;;;;;;5029688;28;20026;-86
2021/05/26 04:08:44;;;;;;;1.27;0.80;;;;;;;;;;5027616;28;20029;-86
2021/05/26 04:11:10;;;;;;;5.47;1.25;;;;;;;;;;5025262;28;20507;-87
2021/05/26 04:13:36;;;;;;;2.60;0.85;;;;;;;;;;5029110;28;20029;-86
2021/05/26 04:16:02;;;;;;;2.15;0.70;;;;;;;;;;5025192;28;20049;-86
2021/05/26 04:18:28;;;;;;;3.83;1.30;;;;;;;;;;5041018;28;20558;-87
2021/05/26 04:20:54;;;;;;;3.50;1.10;;;;;;;;;;5027279;28;20033;-87
2021/05/26 04:23:20;;;;;;;0.80;0.80;;;;;;;;;;5029765;28;20025;-86
2021/05/26 04:25:50;;;;;;;1.95;0.65;;;;;;;;;;5029245;28;20021;-87
2021/05/26 04:28:18;;;;;;;3.88;3.20;;;10.40;52.50;;;;;;5029505;28;20092;-86
2021/05/26 04:30:44;;;;;;;18.02;9.60;;;;;;;;;;5030148;28;20025;-87
2021/05/26 04:33:10;;;;;;;12.32;4.50;;;;;;;;;;5028997;28;20042;-88
2021/05/26 04:35:36;;;;;;;8.93;4.32;;;;;;;;;;5029103;28;20021;-87
2021/05/26 04:38:02;;;;;;;4.85;2.50;;;;;;;;;;5025390;28;20026;-85
2021/05/26 04:40:28;;;;;;;5.78;1.95;;;;;;;;;;5012742;28;20544;-87
2021/05/26 04:42:54;;;;;;;4.47;2.38;;;;;;;;;;5030423;28;20029;-87
2021/05/26 04:45:20;;;;;;;3.15;1.33;;;;;;;;;;5029564;28;20141;-87
2021/05/26 04:47:47;;;;;;;2.35;1.08;;;;;;;;;;5029495;28;20252;-86
2021/05/26 04:50:13;;;;;;;2.13;1.00;;;;;;;;;;5029516;28;20045;-87
2021/05/26 04:52:39;;;;;;;5.78;2.42;;;;;;;;;;5029218;28;20113;-86
2021/05/26 04:55:05;;;;;;;2.78;0.93;;;;;;;;;;5030366;28;20026;-87
2021/05/26 04:57:31;;;;;;;2.53;0.73;;;;;;;;;;5029429;28;20037;-88
2021/05/26 04:59:57;;;;;;;2.72;1.23;;;;;;;;;;5040075;28;20048;-87
2021/05/26 05:02:23;;;;;;;1.35;1.25;;;;;;;;;;5026321;28;20406;-86
2021/05/26 05:04:49;;;;;;;3.75;2.25;;;;;;;;;;5015412;28;20029;-87
2021/05/26 05:07:15;;;;;;;1.98;1.23;;;;;;;;;;5028900;28;20537;-86
2021/05/26 05:09:41;;;;;;;1.52;1.02;;;;;;;;;;5029231;28;20017;-87
2021/05/26 05:12:07;;;;;;;5.00;1.17;;;;;;;;;;5017350;28;20088;-87
2021/05/26 05:14:33;;;;;;;2.47;1.15;;;;;;;;;;5017796;28;20042;-86
2021/05/26 05:16:59;;;;;;;1.25;1.05;;;;;;;;;;5011449;28;20032;-86
2021/05/26 05:19:25;;;;;;;2.67;1.63;;;;;;;;;;5027543;28;20065;-86
2021/05/26 05:21:51;;;;;;;2.50;1.10;;;;;;;;;;5028774;28;20112;-86
2021/05/26 05:24:17;;;;;;;6.80;1.52;;;;;;;;;;5028063;28;20048;-86
2021/05/26 05:26:44;;;;;;;2.33;2.13;;;;;;;;;;5026134;28;20083;-86
2021/05/26 05:29:10;;;;;;;1.25;1.10;;;;;;;;;;5016904;28;20080;-86
2021/05/26 05:31:36;;;;;;;1.90;1.15;;;;;;;;;;5025694;28;20017;-86
2021/05/26 05:34:02;;;;;;;5.68;1.85;;;;;;;;;;5027400;28;20044;-87
2021/05/26 05:36:28;;;;;;;3.72;1.65;;;;;;;;;;5039017;28;20121;-89
2021/05/26 05:38:55;;;;;;;3.33;1.95;;;11.10;78.50;;;;;;5023658;28;20123;-87
2021/05/26 05:41:21;;;;;;;3.55;1.80;;;;;;;;;;5022765;28;20057;-86
2021/05/26 05:43:47;;;;;;;5.90;1.75;;;;;;;;;;5028006;28;20032;-84
2021/05/26 05:46:13;;;;;;;1.40;1.30;;;;;;;;;;5025843;28;20032;-84
2021/05/26 05:48:39;;;;;;;3.08;1.27;;;;;;;;;;5029995;28;20076;-87
2021/05/26 05:51:05;;;;;;;4.15;0.95;;;;;;;;;;5028842;28;20022;-90
2021/05/26 05:53:31;;;;;;;7.35;1.40;;;;;;;;;;5021301;28;20060;-87
2021/05/26 05:55:59;;;;;;;4.13;1.48;;;;;;;;;;5045817;28;20939;-86
2021/05/26 05:58:26;;;;;;;2.90;1.23;;;;;;;;;;5032140;28;20521;-87
2021/05/26 06:00:52;;;;;;;5.35;1.25;;;;;;;;;;5034025;28;20044;-88
2021/05/26 06:03:18;;;;;;;2.45;1.17;;;;;;;;;;5034239;28;20029;-88
2021/05/26 06:05:44;;;;;;;6.20;2.03;;;;;;;;;;5025350;28;20017;-88
2021/05/26 06:08:10;;;;;;;5.30;1.58;;;;;;;;;;5033440;28;20367;-88
2021/05/26 06:10:36;;;;;;;1.98;1.50;;;;;;;;;;5032990;28;20571;-88
2021/05/26 06:13:07;;;;;;;2.05;1.27;;;;;;;;;;5013818;28;20030;-90
2021/05/26 06:15:33;;;;;;;2.88;0.88;;;;;;;;;;5031107;28;20503;-87
2021/05/26 06:17:59;;;;;;;2.53;1.33;;;;;;;;;;5023076;28;20490;-88
2021/05/26 06:20:25;;;;;;;4.35;1.35;;;;;;;;;;5023767;28;20531;-89
2021/05/26 06:22:51;;;;;;;12.90;1.17;;;;;;;;;;5030388;28;20395;-81
2021/05/26 06:25:17;;;;;;;7.65;3.15;;;;;;;;;;5030231;28;20033;-80
2021/05/26 06:27:43;;;;;;;15.32;1.17;;;;;;;;;;5017007;28;20461;-80
2021/05/26 06:30:11;;;;;;;4.45;1.30;;;13.80;71.70;;;;;;5022519;28;20030;-81
2021/05/26 06:32:37;;;;;;;10.88;2.53;;;;;;;;;;5024535;28;20041;-80
2021/05/26 06:35:04;;;;;;;13.23;1.25;;;14.10;46.80;;;;;;5025339;28;20625;-79
2021/05/26 06:37:30;;;;;;;1.60;0.82;;;;;;;;;;5029389;28;20041;-80
2021/05/26 06:39:56;;;;;;;3.42;1.33;;;;;;;;;;5028433;28;20517;-79
2021/05/26 06:42:22;;;;;;;3.97;1.05;;;;;;;;;;5024511;28;20025;-80
2021/05/26 06:44:48;;;;;;;3.50;2.25;;;;;;;;;;5028550;28;20033;-84
2021/05/26 06:47:14;;;;;;;9.73;1.70;;;;;;;;;;5029585;28;20021;-81
2021/05/26 06:49:40;;;;;;;5.10;2.33;;;;;;;;;;5023680;28;20120;-80
2021/05/26 06:52:07;;;;;;;9.00;1.58;;;;;;;;;;5030042;28;20541;-80
2021/05/26 06:54:33;;;;;;;5.28;1.83;;;;;;;;;;5029104;28;20037;-80
2021/05/26 06:57:00;;;;;;;1.30;1.00;;;;;;;;;;5027818;28;20570;-80
2021/05/26 06:59:26;;;;;;;4.38;0.88;;;;;;;;;;5028569;28;20052;-81
2021/05/26 07:01:52;;;;;;;4.60;0.80;;;;;;;;;;5029135;28;20705;-81
2021/05/26 07:04:18;;;;;;;3.78;1.17;;;;;;;;;;5029079;28;20021;-81
2021/05/26 07:06:44;;;;;;;4.30;1.27;;;;;;;;;;5029550;28;20057;-82
2021/05/26 07:09:10;;;;;;;1.80;0.95;;;;;;;;;;5020456;28;20550;-83
2021/05/26 07:11:36;;;;;;;3.00;1.00;;;;;;;;;;5014764;28;20112;-85
2021/05/26 07:14:02;;;;;;;5.65;1.08;;;;;;;;;;5026423;28;20116;-81
2021/05/26 07:16:28;;;;;;;4.18;0.95;;;;;;;;;;5025244;28;20522;-79
2021/05/26 07:18:59;;;;;;;4.10;0.75;;;;;;;;;;5040378;28;20475;-79
2021/05/26 07:21:25;;;;;;;9.18;1.27;;;;;;;;;;5024168;28;20109;-79
2021/05/26 07:23:51;;;;;;;7.35;1.17;;;;;;;;;;5028755;28;20104;-80
2021/05/26 07:26:17;;;;;;;2.15;0.57;;;;;;;;;;5027576;28;20040;-79
2021/05/26 07:28:43;;;;;;;3.08;0.75;;;;;;;;;;5011709;28;20030;-79
2021/05/26 07:31:09;;;;;;;3.30;0.60;;;;;;;;;;5029088;28;20107;-80
2021/05/26 07:33:35;;;;;;;5.63;1.17;;;;;;;;;;5024845;28;20022;-80
2021/05/26 07:36:01;;;;;;;6.15;0.93;;;;;;;;;;5024501;28;20059;-79
2021/05/26 07:38:27;;;;;;;6.95;0.80;;;;;;;;;;5025777;28;20046;-79
2021/05/26 07:40:54;;;;;;;7.35;2.00;;;;;;;;;;5010286;28;20047;-80
2021/05/26 07:43:20;;;;;;;3.38;0.80;;;;;;;;;;5027549;28;20017;-81
2021/05/26 07:45:46;;;;;;;1.60;0.77;;;;;;;;;;5016305;28;20026;-82
2021/05/26 07:48:12;;;;;;;4.65;1.15;;;;;;;;;;5025322;28;20086;-82
2021/05/26 07:50:38;;;;;;;3.33;1.60;;;;;;;;;;5028138;28;20815;-81
2021/05/26 07:53:04;;;;;;;1.30;0.65;;;;;;;;;;5028304;28;20029;-79
2021/05/26 07:55:30;;;;;;;0.82;0.65;;;;;;;;;;5026135;28;20091;-79
2021/05/26 07:57:56;;;;;;;3.65;1.02;;;;;;;;;;5021932;28;20033;-80
2021/05/26 08:00:23;;;;;;;2.00;0.82;;;19.10;32.40;;;;;;5023360;28;20045;-79
2021/05/26 08:02:51;;;;;;;5.40;1.15;;;;;;;;;;5024136;28;20100;-79
2021/05/26 08:05:18;;;;;;;2.58;1.75;;;;;;;;;;5027957;28;20423;-79
2021/05/26 08:07:44;;;;;;;2.40;0.68;;;;;;;;;;5013704;28;20049;-79
2021/05/26 08:10:12;;;;;;;1.27;0.60;;;20.90;32.00;;;;;;5028157;28;20537;-80
2021/05/26 08:12:38;;;;;;;6.70;1.40;;;;;;;;;;5024141;28;20037;-82
2021/05/26 08:15:05;;;;;;;5.65;1.55;;;19.90;28.90;;;;;;5027328;28;20519;-82
2021/05/26 08:17:31;;;;;;;0.98;0.55;;;;;;;;;;5027317;28;20407;-82
2021/05/26 08:20:00;;;;;;;1.70;0.70;;;;;;;;;;5025796;28;20049;-79
2021/05/26 08:22:26;;;;;;;5.03;0.93;;;;;;;;;;5027005;28;20495;-79
2021/05/26 08:24:52;;;;;;;6.00;0.88;;;;;;;;;;5029105;28;20101;-86
2021/05/26 08:27:18;;;;;;;2.85;1.00;;;;;;;;;;5028873;28;20437;-88
2021/05/26 08:29:44;;;;;;;3.63;0.70;;;;;;;;;;5022857;28;20117;-90
2021/05/26 08:32:10;;;;;;;2.22;1.02;;;;;;;;;;5025828;28;20041;-91
2021/05/26 08:34:36;;;;;;;2.30;0.82;;;;;;;;;;5039946;28;20121;-90
2021/05/26 08:37:03;;;;;;;2.85;1.30;;;;;;;;;;5031870;28;20060;-89
2021/05/26 08:39:33;;;;;;;5.47;0.95;;;;;;;;;;5029894;28;20048;-88
2021/05/26 08:41:59;;;;;;;4.40;0.75;;;;;;;;;;5025768;28;20120;-88
2021/05/26 08:44:25;;;;;;;2.38;0.63;;;;;;;;;;5029304;28;20061;-88
2021/05/26 08:46:53;;;;;;;4.10;0.90;;;21.50;26.40;;;;;;5028678;28;20552;-87
2021/05/26 08:49:20;;;;;;;1.10;0.60;;;21.70;29.50;;;;;;5029693;28;20483;-87
2021/05/26 08:51:46;;;;;;;4.68;0.90;;;;;;;;;;5029050;28;20029;-89
2021/05/26 08:54:13;;;;;;;7.47;1.50;;;;;;;;;;5021813;28;20040;-88
2021/05/26 08:56:39;;;;;;;8.02;0.80;;;;;;;;;;5021612;28;20037;-87
2021/05/26 08:59:05;;;;;;;7.63;1.58;;;;;;;;;;5029454;28;20044;-87
2021/05/26 09:01:31;;;;;;;8.70;1.00;;;;;;;;;;5028033;28;20037;-88
2021/05/26 09:04:33;;;;;;;5.50;1.13;;;22.70;25.60;;;;;;5028556;28;20510;-88
2021/05/26 09:07:14;;;;;;;2.00;0.57;;;;;;;;;;5015048;28;20045;-88
2021/05/26 09:09:54;;;;;;;6.20;1.38;;;22.90;23.80;;;;;;5016933;28;20033;-87
2021/05/26 09:12:30;;;;;;;0.90;0.50;;;23.00;22.90;;;;;;5024085;28;20088;-88
2021/05/26 09:15:01;;;;;;;2.08;0.60;;;23.20;22.40;;;;;;5024363;28;20136;-88
2021/05/26 09:17:30;;;;;;;2.22;0.52;;;23.30;22.40;;;;;;5032396;28;20044;-88
2021/05/26 09:20:23;;;;;;;2.80;0.82;;;23.70;23.10;;;;;;5033629;28;20096;-88
2021/05/26 09:23:07;;;;;;;2.45;1.02;;;23.80;42.10;;;;;;5032447;28;20036;-88
2021/05/26 09:25:35;;;;;;;1.02;0.40;;;24.20;24.40;;;;;;5031597;28;20030;-89
2021/05/26 09:28:16;;;;;;;2.55;0.68;;;;;;;;;;5014552;28;20092;-87
2021/05/26 09:30:42;;;;;;;4.78;0.75;;;;;;;;;;5031032;28;20131;-86
2021/05/26 09:33:40;;;;;;;2.05;0.35;;;24.20;22.60;;;;;;5024401;28;20042;-87
2021/05/26 09:36:17;;;;;;;1.20;0.60;;;23.80;22.60;;;;;;5025698;28;20395;-94
2021/05/26 09:39:00;;;;;;;1.90;0.65;;;23.80;41.70;;;;;;5024974;28;20164;-85
2021/05/26 09:41:31;;;;;;;3.40;0.75;;;24.20;23.70;;;;;;5023620;28;20082;-93
2021/05/26 09:43:57;;;;;;;1.00;0.70;;;;;;;;;;5035320;28;20067;-95
2021/05/26 09:46:25;;;;;;;2.38;0.32;;;23.80;22.00;;;;;;5035364;28;20049;-96
2021/05/26 09:49:05;;;;;;;2.97;1.30;;;23.40;31.50;;;;;;5034368;28;20025;-84
2021/05/26 09:51:34;;;;;;;1.00;0.85;;;;;;;;;;5032166;28;20639;-93
2021/05/26 09:54:10;;;;;;;2.53;0.85;;;;;;;;;;5034860;28;20448;-93
2021/05/26 09:56:36;;;;;;;1.02;0.40;;;;;;;;;;5034176;28;20025;-93
2021/05/26 09:59:03;;;;;;;2.20;0.50;;;;;;;;;;5034721;28;20487;-93
2021/05/26 10:01:31;;;;;;;1.38;0.30;;;;;;;;;;5034614;28;20076;-96
2021/05/26 10:03:57;;;;;;;1.88;0.85;;;;;;;;;;5053809;28;20502;-95
2021/05/26 10:06:24;;;;;;;2.83;0.57;;;;;;;;;;5038520;28;20025;-96
2021/05/26 10:08:51;;;;;;;0.57;0.50;;;;;;;;;;5039519;28;20029;-95
2021/05/26 10:11:17;;;;;;;1.38;0.70;;;;;;;;;;5034670;28;20034;-96
2021/05/26 10:13:47;;;;;;;0.82;0.50;;;;;;;;;;5036122;28;20029;-94
2021/05/26 10:16:19;;;;;;;0.60;0.30;;;;;;;;;;5033127;28;20052;-95
2021/05/26 10:18:46;;;;;;;1.08;0.30;;;;;;;;;;5031498;28;20034;-95
2021/05/26 10:21:16;;;;;;;2.70;0.47;;;;;;;;;;5049244;28;20116;-96
2021/05/26 10:23:43;;;;;;;1.13;0.40;;;;;;;;;;5021171;28;20038;-94
2021/05/26 10:26:09;;;;;;;4.15;0.95;;;;;;;;;;5034036;28;20029;-96
2021/05/26 10:28:35;;;;;;;1.23;0.50;;;;;;;;;;5030364;28;20071;-95
2021/05/26 10:31:02;;;;;;;2.92;0.60;;;;;;;;;;5045344;28;20495;-95
2021/05/26 10:33:57;;;;;;;0.52;0.20;;;;;;;;;;5057670;28;20087;-96
2021/05/26 10:36:24;;;;;;;1.63;0.40;;;;;;;;;;5048631;28;20033;-96
2021/05/26 10:39:00;;;;;;;0.75;0.20;;;;;;;;;;5055719;28;20121;-96
2021/05/26 10:41:27;;;;;;;0.95;0.45;;;;;;;;;;5053369;28;20033;-96
2021/05/26 10:43:56;;;;;;;1.88;1.05;;;;;;;;;;5047185;28;20094;-96
2021/05/26 10:46:36;;;;;;;2.80;0.50;;;;;;;;;;5062939;28;20339;-96
2021/05/26 10:49:06;;;;;;;2.05;0.45;;;;;;;;;;5047068;28;20029;-94
2021/05/26 10:51:51;;;;;;;8.88;0.40;;;;;;;;;;5040760;28;20021;-96
2021/05/26 10:54:40;;;;;;;3.28;0.77;;;;;;;;;;5069858;28;20040;-96
2021/05/26 10:57:07;;;;;;;2.58;0.95;;;;;;;;;;5051399;28;20049;-96
2021/05/26 10:59:33;;;;;;;1.65;0.50;;;;;;;;;;5052251;28;20103;-96
2021/05/26 11:02:07;;;;;;;1.77;0.80;;;;;;;;;;5038188;28;20461;-96
2021/05/26 11:04:34;;;;;;;1.17;0.68;;;;;;;;;;5032871;28;20109;-86
2021/05/26 11:07:31;;;;;;;;;;;25.50;24.00;;;;;;5025671;28;20029;-89
2021/05/26 11:10:01;;;;;;;0.60;0.22;;;;;;;;;;5014970;28;19913;-88
2021/05/26 11:12:27;;;;;;;2.75;0.40;;;;;;;;;;5027342;28;20037;-90
2021/05/26 11:14:54;;;;;;;0.85;0.73;;;;;;;;;;5026649;28;20505;-88
2021/05/26 11:17:26;;;;;;;0.65;0.22;;;23.80;24.20;;;;;;5023163;28;20516;-88
2021/05/26 11:20:10;;;;;;;0.63;0.30;;;23.70;24.10;;;;;;5025479;28;20092;-89
2021/05/26 11:22:36;;;;;;;0.75;0.68;;;;;;;;;;5026099;28;20499;-88
2021/05/26 11:25:02;;;;;;;1.10;0.50;;;;;;;;;;5026632;28;20048;-88
2021/05/26 11:27:28;;;;;;;8.35;1.05;;;;;;;;;;5023345;28;20116;-88
2021/05/26 11:29:57;;;;;;;0.75;0.30;;;;;;;;;;5026445;28;20509;-87
2021/05/26 11:32:24;;;;;;;4.22;0.55;;;23.20;27.70;;;;;;5023062;28;20021;-89
2021/05/26 11:34:55;;;;;;;1.55;0.52;;;23.10;27.60;;;;;;5023596;28;20033;-87
2021/05/26 11:37:36;;;;;;;5.00;0.95;;;23.10;27.10;;;;;;5020414;28;20557;-87
2021/05/26 11:40:15;;;;;;;2.00;0.32;;;23.00;27.60;;;;;;5028098;28;20048;-88
2021/05/26 11:42:41;;;;;;;0.88;0.30;;;;;;;;;;5028881;28;20036;-88
2021/05/26 11:45:08;;;;;;;1.05;0.40;;;22.60;24.50;;;;;;5025312;28;20033;-87
2021/05/26 11:47:34;;;;;;;;;;;22.30;25.50;;;;;;5024818;28;20402;-89
2021/05/26 11:50:01;;;;;;;6.78;1.70;;;22.40;27.00;;;;;;5028363;28;19920;-85
2021/05/26 11:52:27;;;;;;;1.55;1.10;;;;;;;;;;5016682;28;20037;-88
2021/05/26 11:54:58;;;;;;;1.15;0.40;;;22.30;25.80;;;;;;5031037;28;20072;-88
2021/05/26 11:57:44;;;;;;;3.15;0.75;;;22.10;26.20;;;;;;5024743;28;20026;-88
2021/05/26 12:00:12;;;;;;;1.38;0.40;;;;;;;;;;5024019;28;20491;-88
2021/05/26 12:02:58;;;;;;;2.03;0.47;;;22.10;28.10;;;;;;5026500;28;20025;-89
2021/05/26 12:05:36;;;;;;;3.72;0.40;;;;;;;;;;5027219;28;20061;-88
2021/05/26 12:08:02;;;;;;;2.72;0.50;;;;;;;;;;5028816;28;20055;-88
2021/05/26 12:10:28;;;;;;;2.70;0.35;;;;;;;;;;5027373;28;20391;-88
2021/05/26 12:13:01;;;;;;;1.02;0.40;;;;;;;;;;5036979;28;20034;-89
2021/05/26 12:15:28;;;;;;;3.55;0.50;;;;;;;;;;5028260;28;20065;-88
2021/05/26 12:17:55;;;;;;;0.77;0.40;;;21.80;27.90;;;;;;5018374;28;20157;-88
2021/05/26 12:20:21;;;;;;;1.10;1.00;;;;;;;;;;5017182;28;20049;-89
2021/05/26 12:22:49;;;;;;;1.20;0.60;;;;;;;;;;5010644;28;20029;-87
2021/05/26 12:25:15;;;;;;;0.52;0.20;;;;;;;;;;5029550;28;20033;-87
2021/05/26 12:27:47;;;;;;;1.33;0.57;;;21.00;27.90;;;;;;5028340;28;20032;-87
2021/05/26 12:30:19;;;;;;;6.13;0.40;;;18.20;24.90;;;;;;5027145;28;20034;-87
2021/05/26 12:32:47;;;;;;;4.97;0.40;;;20.90;28.70;;;;;;5024061;28;20116;-87
2021/05/26 12:35:15;;;;;;;1.48;0.60;;;;;;;;;;5029336;28;20502;-88
2021/05/26 12:37:46;;;;;;;0.35;0.20;;;21.00;26.90;;;;;;5029759;28;20116;-88
2021/05/26 12:40:30;;;;;;;1.42;0.30;;;21.00;27.90;;;;;;5012720;28;20044;-86
2021/05/26 12:42:58;;;;;;;3.55;0.70;;;21.00;26.50;;;;;;5022574;28;20529;-90
2021/05/26 12:45:30;;;;;;;0.38;0.22;;;21.20;28.10;;;;;;5027819;28;20018;-89
2021/05/26 12:47:57;;;;;;;1.20;0.35;;;;;;;;;;5029894;28;20029;-90
2021/05/26 12:50:25;;;;;;;0.65;0.45;;;21.30;26.80;;;;;;5019632;28;20570;-96
2021/05/26 12:52:55;;;;;;;5.18;0.47;;;;;;;;;;5038316;28;20086;-95
2021/05/26 12:55:24;;;;;;;3.78;0.40;;;21.10;28.20;;;;;;5029415;28;20033;-87
2021/05/26 12:57:51;;;;;;;2.63;0.30;;;;;;;;;;5024166;28;20029;-91
2021/05/26 13:00:25;;;;;;;2.78;1.30;;;;;;;;;;5030267;28;20068;-96
2021/05/26 13:03:04;;;;;;;1.10;0.43;;;21.30;29.40;;;;;;5034500;28;20018;-91
2021/05/26 13:05:33;;;;;;;0.57;0.50;;;21.40;27.80;;;;;;5023104;28;20025;-95
2021/05/26 13:08:11;;;;;;;0.85;0.40;;;;;;;;;;5019191;28;20033;-92
2021/05/26 13:10:54;;;;;;;1.50;0.32;;;21.40;41.20;;;;;;5032676;28;20692;-89
2021/05/26 13:13:21;;;;;;;1.50;0.80;;;;;;;;;;5029648;28;20022;-93
2021/05/26 13:15:52;;;;;;;0.80;0.30;;;21.40;27.40;;;;;;5029147;28;20050;-92
2021/05/26 13:18:20;;;;;;;0.65;0.40;;;21.40;28.80;;;;;;5023468;28;20284;-92
2021/05/26 13:20:46;;;;;;;;;;;21.50;29.80;;;;;;5021659;28;20498;-90
2021/05/26 13:23:13;;;;;;;0.65;0.50;;;21.40;27.70;;;;;;5024965;28;19921;-86
2021/05/26 13:25:41;;;;;;;2.50;0.40;;;21.40;26.80;;;;;;5021599;28;20033;-94
2021/05/26 13:28:09;;;;;;;0.45;0.30;;;21.40;28.90;;;;;;5024366;28;20092;-85
2021/05/26 13:30:36;;;;;;;1.65;1.27;;;21.40;31.10;;;;;;5089316;23;20739;-94
2021/05/26 13:33:03;;;;;;;1.90;0.45;;;;;;;;;;5026700;28;20030;-92
2021/05/26 13:35:30;;;;;;;3.90;1.88;;;21.40;33.00;;;;;;5022914;28;20063;-88
2021/05/26 13:37:56;;;;;;;0.95;0.45;;;;;;;;;;5022821;28;20026;-76
2021/05/26 13:40:23;;;;;;;0.95;0.45;;;21.50;28.40;;;;;;5025433;28;20132;-78
2021/05/26 13:42:49;;;;;;;2.63;0.55;;;;;;;;;;5026541;28;20034;-77
2021/05/26 13:45:16;;;;;;;0.73;0.40;;;;;;;;;;5025049;28;20033;-78
2021/05/26 13:47:42;;;;;;;0.77;0.67;;;;;;;;;;5023874;28;20025;-78
2021/05/26 13:50:16;;;;;;;0.80;0.40;;;21.40;51.70;;;;;;5025305;28;20024;-78
2021/05/26 13:52:47;;;;;;;1.75;0.55;;;21.30;28.50;;;;;;5023606;28;20041;-78
2021/05/26 13:55:14;;;;;;;5.00;1.02;;;21.30;29.10;;;;;;5027049;28;20021;-78
2021/05/26 13:57:41;;;;;;;0.65;0.30;;;;;;;;;;5024665;28;20103;-77
2021/05/26 14:00:10;;;;;;;4.88;1.20;;;21.30;33.20;;;;;;5025608;28;20197;-77
2021/05/26 14:02:36;;;;;;;0.95;0.60;;;;;;;;;;5028263;28;20026;-78
2021/05/26 14:05:03;;;;;;;0.73;0.55;;;21.20;50.30;;;;;;5027364;28;20414;-79
2021/05/26 14:07:29;;;;;;;1.88;0.40;;;;;;;;;;5028252;28;20438;-77
2021/05/26 14:09:55;;;;;;;2.40;0.52;;;;;;;;;;5029120;28;20064;-78
2021/05/26 14:12:21;;;;;;;0.68;0.32;;;;;;;;;;5028052;28;20159;-77
2021/05/26 14:14:47;;;;;;;2.25;1.25;;;;;;;;;;5028782;28;20116;-77
2021/05/26 14:17:13;;;;;;;0.43;0.30;;;;;;;;;;5028288;28;20101;-78
2021/05/26 14:19:39;;;;;;;1.90;0.32;;;;;;;;;;5016137;28;20132;-77